createdAt,value
2018-12-05T00:00:55.058Z,17.53
2018-12-05T00:03:23.289Z,18.50
2018-12-05T00:05:51.569Z,18.93
2018-12-05T00:08:19.873Z,18.13
2018-12-05T00:10:48.113Z,17.70
2018-12-05T00:13:16.394Z,19.23
2018-12-05T00:15:44.698Z,18.33
2018-12-05T00:18:12.939Z,17.87
2018-12-05T00:20:41.117Z,16.60
2018-12-05T00:23:09.461Z,17.43
2018-12-05T00:25:37.770Z,17.77
2018-12-05T00:28:05.957Z,19.37
2018-12-05T00:30:34.248Z,17.13
2018-12-05T00:33:02.497Z,18.80
2018-12-05T00:35:30.777Z,16.90
2018-12-05T00:37:59.069Z,17.43
2018-12-05T00:40:27.327Z,17.67
2018-12-05T00:42:55.606Z,14.53
2018-12-05T00:45:23.907Z,13.83
2018-12-05T00:47:52.153Z,10.83
2018-12-05T00:50:20.420Z,9.63
2018-12-05T00:52:48.745Z,11.73
2018-12-05T00:55:16.972Z,11.23
2018-12-05T00:57:45.149Z,11.20
2018-12-05T01:00:13.448Z,11.87
2018-12-05T01:02:41.696Z,10.13
2018-12-05T01:05:09.978Z,9.60
2018-12-05T01:07:38.286Z,8.70
2018-12-05T01:10:06.840Z,9.97
2018-12-05T01:12:35.117Z,11.20
2018-12-05T01:15:03.463Z,10.20
2018-12-05T01:17:31.769Z,10.00
2018-12-05T01:20:00.041Z,10.20
2018-12-05T01:22:28.233Z,10.43
2018-12-05T01:24:56.492Z,9.53
2018-12-05T01:27:24.769Z,10.10
2018-12-05T01:29:53.161Z,8.93
2018-12-05T01:32:21.426Z,12.33
2018-12-05T01:34:49.701Z,10.40
2018-12-05T01:37:18.011Z,11.17
2018-12-05T01:39:46.248Z,10.37
2018-12-05T01:42:14.525Z,7.50
2018-12-05T01:44:42.834Z,11.87
2018-12-05T01:47:11.075Z,8.83
2018-12-05T01:49:39.350Z,12.17
2018-12-05T01:52:07.765Z,10.63
2018-12-05T01:54:36.005Z,9.93
2018-12-05T01:57:04.402Z,10.77
2018-12-05T01:59:32.698Z,10.40
2018-12-05T02:02:00.943Z,8.13
2018-12-05T02:04:29.209Z,7.50
2018-12-05T02:06:57.505Z,9.73
2018-12-05T02:09:25.768Z,7.63
2018-12-05T02:11:54.050Z,6.10
2018-12-05T02:14:22.366Z,6.77
2018-12-05T02:16:50.594Z,7.00
2018-12-05T02:19:18.859Z,7.07
2018-12-05T02:21:47.161Z,6.83
2018-12-05T02:24:15.408Z,7.10
2018-12-05T02:26:43.681Z,6.93
2018-12-05T02:29:11.881Z,5.93
2018-12-05T02:31:40.142Z,6.63
2018-12-05T02:34:08.426Z,6.53
2018-12-05T02:36:36.730Z,5.80
2018-12-05T02:39:07.973Z,6.00
2018-12-05T02:41:36.222Z,7.00
2018-12-05T02:44:04.514Z,6.93
2018-12-05T02:46:32.761Z,6.50
2018-12-05T02:49:00.965Z,6.97
2018-12-05T02:51:29.214Z,8.53
2018-12-05T02:53:57.486Z,6.20
2018-12-05T02:56:25.810Z,7.00
2018-12-05T02:58:53.994Z,5.97
2018-12-05T03:01:22.169Z,6.20
2018-12-05T03:03:50.364Z,6.83
2018-12-05T03:06:18.513Z,6.37
2018-12-05T03:08:46.688Z,6.73
2018-12-05T03:11:14.889Z,6.73
2018-12-05T03:13:43.038Z,6.40
2018-12-05T03:16:11.301Z,7.07
2018-12-05T03:18:39.524Z,7.00
2018-12-05T03:21:07.649Z,7.90
2018-12-05T03:23:35.765Z,8.10
2018-12-05T03:26:03.920Z,8.17
2018-12-05T03:28:32.070Z,8.40
2018-12-05T03:31:00.242Z,8.07
2018-12-05T03:33:28.547Z,8.60
2018-12-05T03:35:56.793Z,9.20
2018-12-05T03:38:24.972Z,8.60
2018-12-05T03:40:53.280Z,7.77
2018-12-05T03:43:21.420Z,8.93
2018-12-05T03:45:49.596Z,8.10
2018-12-05T03:48:18.150Z,7.30
2018-12-05T03:50:46.457Z,8.00
2018-12-05T03:53:14.634Z,10.13
2018-12-05T03:55:42.939Z,7.73
2018-12-05T03:58:11.176Z,8.30
2018-12-05T04:00:39.349Z,7.83
2018-12-05T04:03:07.556Z,8.17
2018-12-05T04:05:35.830Z,8.00
2018-12-05T04:08:04.074Z,9.03
2018-12-05T04:10:32.404Z,8.33
2018-12-05T04:13:00.642Z,7.93
2018-12-05T04:15:28.882Z,8.60
2018-12-05T04:17:57.107Z,8.47
2018-12-05T04:20:25.352Z,7.97
2018-12-05T04:22:53.460Z,8.43
2018-12-05T04:25:21.629Z,8.00
2018-12-05T04:27:49.793Z,8.97
2018-12-05T04:30:17.949Z,9.30
2018-12-05T04:32:46.143Z,8.30
2018-12-05T04:35:14.353Z,9.30
2018-12-05T04:37:42.483Z,8.57
2018-12-05T04:40:10.762Z,9.23
2018-12-05T04:42:39.014Z,8.47
2018-12-05T04:45:07.186Z,9.23
2018-12-05T04:47:35.399Z,11.10
2018-12-05T04:50:04.214Z,10.67
2018-12-05T04:52:32.436Z,10.63
2018-12-05T04:55:00.744Z,11.20
2018-12-05T04:57:28.986Z,10.73
2018-12-05T04:59:57.216Z,11.00
2018-12-05T05:02:25.376Z,10.73
2018-12-05T05:04:53.596Z,9.70
2018-12-05T05:07:21.772Z,8.97
2018-12-05T05:09:50.637Z,9.73
2018-12-05T05:12:18.838Z,9.23
2018-12-05T05:14:47.008Z,10.53
2018-12-05T05:17:15.213Z,10.70
2018-12-05T05:19:43.493Z,10.93
2018-12-05T05:22:11.637Z,10.90
2018-12-05T05:24:39.833Z,10.07
2018-12-05T05:27:08.007Z,10.80
2018-12-05T05:29:36.261Z,10.90
2018-12-05T05:32:04.469Z,10.13
2018-12-05T05:34:32.614Z,11.30
2018-12-05T05:37:00.870Z,9.93
2018-12-05T05:39:29.088Z,11.20
2018-12-05T05:41:57.229Z,11.43
2018-12-05T05:44:25.393Z,10.93
2018-12-05T05:46:53.597Z,10.80
2018-12-05T05:49:21.845Z,10.13
2018-12-05T05:51:50.024Z,11.13
2018-12-05T05:54:18.321Z,9.50
2018-12-05T05:56:46.473Z,11.47
2018-12-05T05:59:14.643Z,9.87
2018-12-05T06:01:42.841Z,10.80
2018-12-05T06:04:10.988Z,10.70
2018-12-05T06:06:39.160Z,9.13
2018-12-05T06:09:07.976Z,9.87
2018-12-05T06:11:36.151Z,9.70
2018-12-05T06:14:04.401Z,8.40
2018-12-05T06:16:32.612Z,9.53
2018-12-05T06:19:00.757Z,8.60
2018-12-05T06:21:28.917Z,9.17
2018-12-05T06:23:57.145Z,9.60
2018-12-05T06:26:25.371Z,9.13
2018-12-05T06:28:53.544Z,10.03
2018-12-05T06:31:22.460Z,9.93
2018-12-05T06:33:50.607Z,10.07
2018-12-05T06:36:18.884Z,10.27
2018-12-05T06:38:47.097Z,9.17
2018-12-05T06:41:15.229Z,14.17
2018-12-05T06:43:43.413Z,11.50
2018-12-05T06:46:11.600Z,12.60
2018-12-05T06:48:39.849Z,12.07
2018-12-05T06:51:08.125Z,11.57
2018-12-05T06:53:36.333Z,10.17
2018-12-05T06:56:04.485Z,11.13
2018-12-05T06:58:32.649Z,12.00
2018-12-05T07:01:00.861Z,10.00
2018-12-05T07:03:28.994Z,8.63
2018-12-05T07:05:57.317Z,10.47
2018-12-05T07:08:25.568Z,10.73
2018-12-05T07:10:53.722Z,9.60
2018-12-05T07:13:21.893Z,11.03
2018-12-05T07:15:50.088Z,9.13
2018-12-05T07:18:18.215Z,10.00
2018-12-05T07:20:46.409Z,10.23
2018-12-05T07:23:14.616Z,9.70
2018-12-05T07:25:42.757Z,10.07
2018-12-05T07:28:10.939Z,10.47
2018-12-05T07:30:39.137Z,11.17
2018-12-05T07:33:07.282Z,10.77
2018-12-05T07:35:35.410Z,11.07
2018-12-05T07:38:03.657Z,11.77
2018-12-05T07:40:31.800Z,12.03
2018-12-05T07:42:59.983Z,11.77
2018-12-05T07:45:28.737Z,11.90
2018-12-05T07:47:56.938Z,11.30
2018-12-05T07:50:25.209Z,11.80
2018-12-05T07:52:53.519Z,10.10
2018-12-05T07:55:21.762Z,10.23
2018-12-05T07:57:49.933Z,10.20
2018-12-05T08:00:18.135Z,11.53
2018-12-05T08:02:46.389Z,11.90
2018-12-05T08:05:14.561Z,10.47
2018-12-05T08:07:42.764Z,10.37
2018-12-05T08:10:10.904Z,11.00
2018-12-05T08:12:39.073Z,10.13
2018-12-05T08:15:08.474Z,11.77
2018-12-05T08:17:36.654Z,10.23
2018-12-05T08:20:05.096Z,11.27
2018-12-05T08:22:33.452Z,12.53
2018-12-05T08:25:01.581Z,10.80
2018-12-05T08:27:44.705Z,10.50
2018-12-05T08:30:12.885Z,10.00
2018-12-05T08:32:41.048Z,8.67
2018-12-05T08:35:09.258Z,8.83
2018-12-05T08:37:37.393Z,9.83
2018-12-05T08:40:05.893Z,8.70
2018-12-05T08:42:34.077Z,8.80
2018-12-05T08:45:02.221Z,9.53
2018-12-05T08:47:33.727Z,8.03
2018-12-05T08:50:00.550Z,7.97
2018-12-05T08:52:28.689Z,8.80
2018-12-05T08:54:56.861Z,8.10
2018-12-05T08:57:25.052Z,9.87
2018-12-05T08:59:53.208Z,8.80
2018-12-05T09:02:23.017Z,10.30
2018-12-05T09:04:51.397Z,9.00
2018-12-05T09:07:19.573Z,8.23
2018-12-05T09:09:47.749Z,11.90
2018-12-05T09:12:15.960Z,9.70
2018-12-05T09:14:44.098Z,9.03
2018-12-05T09:17:12.266Z,9.83
2018-12-05T09:19:40.582Z,8.17
2018-12-05T09:22:08.719Z,10.20
2018-12-05T09:24:36.908Z,9.43
2018-12-05T09:27:05.189Z,9.03
2018-12-05T09:29:33.351Z,9.17
2018-12-05T09:32:01.609Z,9.53
2018-12-05T09:34:29.824Z,8.80
2018-12-05T09:36:57.962Z,9.87
2018-12-05T09:39:26.138Z,10.53
2018-12-05T09:41:54.339Z,9.53
2018-12-05T09:44:22.596Z,9.63
2018-12-05T09:46:50.757Z,10.13
2018-12-05T09:49:18.957Z,10.33
2018-12-05T09:51:47.104Z,11.33
2018-12-05T09:54:15.384Z,11.77
2018-12-05T09:56:43.696Z,12.23
2018-12-05T09:59:11.833Z,13.77
2018-12-05T10:01:40.104Z,14.33
2018-12-05T10:04:08.305Z,16.27
2018-12-05T10:06:36.453Z,14.60
2018-12-05T10:09:07.361Z,23.33
2018-12-05T10:11:35.576Z,19.10
2018-12-05T10:14:03.836Z,15.13
2018-12-05T10:16:32.058Z,15.53
2018-12-05T10:19:00.289Z,14.53
2018-12-05T10:21:28.466Z,14.80
2018-12-05T10:23:56.664Z,15.17
2018-12-05T10:26:24.915Z,14.40
2018-12-05T10:28:53.193Z,16.70
2018-12-05T10:31:21.390Z,15.87
2018-12-05T10:33:49.636Z,15.07
2018-12-05T10:36:17.809Z,16.10
2018-12-05T10:38:46.024Z,16.23
2018-12-05T10:41:14.157Z,15.40
2018-12-05T10:43:42.438Z,16.43
2018-12-05T10:46:10.629Z,15.37
2018-12-05T10:48:38.777Z,16.63
2018-12-05T10:51:06.961Z,15.30
2018-12-05T10:53:35.153Z,16.17
2018-12-05T10:56:03.402Z,14.50
2018-12-05T10:58:31.573Z,15.20
2018-12-05T11:01:05.153Z,15.77
2018-12-05T11:03:34.885Z,15.93
2018-12-05T11:06:09.598Z,18.73
2018-12-05T11:08:43.369Z,18.47
2018-12-05T11:11:16.985Z,15.33
2018-12-05T11:13:50.720Z,16.13
2018-12-05T11:16:24.492Z,16.40
2018-12-05T11:20:02.149Z,15.67
2018-12-05T11:23:38.733Z,15.37
2018-12-05T11:26:11.843Z,14.00
2018-12-05T11:28:40.098Z,14.73
2018-12-05T11:31:08.265Z,15.47
2018-12-05T11:33:36.548Z,14.57
2018-12-05T11:36:04.728Z,14.20
2018-12-05T11:38:32.965Z,15.33
2018-12-05T11:41:01.140Z,15.63
2018-12-05T11:43:29.349Z,16.50
2018-12-05T11:45:57.536Z,15.13
2018-12-05T11:48:25.757Z,15.43
2018-12-05T11:50:53.960Z,15.03
2018-12-05T11:53:22.109Z,14.93
2018-12-05T11:55:50.278Z,14.47
2018-12-05T11:58:18.613Z,14.43
2018-12-05T12:00:46.841Z,15.43
2018-12-05T12:03:15.005Z,15.50
2018-12-05T12:05:43.207Z,14.10
2018-12-05T12:08:11.354Z,14.77
2018-12-05T12:10:40.969Z,14.93
2018-12-05T12:13:09.724Z,15.47
2018-12-05T12:15:38.089Z,15.27
2018-12-05T12:18:06.305Z,16.13
2018-12-05T12:20:34.516Z,15.20
2018-12-05T12:23:02.767Z,13.67
2018-12-05T12:25:31.070Z,14.57
2018-12-05T12:27:59.237Z,15.80
2018-12-05T12:30:27.394Z,14.80
2018-12-05T12:32:55.541Z,13.27
2018-12-05T12:35:23.749Z,14.07
2018-12-05T12:37:52.010Z,13.27
2018-12-05T12:40:20.174Z,12.87
2018-12-05T12:42:48.440Z,13.17
2018-12-05T12:45:16.621Z,13.50
2018-12-05T12:47:44.789Z,13.80
2018-12-05T12:50:12.989Z,13.47
2018-12-05T12:52:41.137Z,13.87
2018-12-05T12:55:09.313Z,12.90
2018-12-05T12:57:37.619Z,12.17
2018-12-05T13:00:07.661Z,12.70
2018-12-05T13:02:35.889Z,13.30
2018-12-05T13:05:04.096Z,13.53
2018-12-05T13:07:32.230Z,13.43
2018-12-05T13:10:00.497Z,13.30
2018-12-05T13:12:32.945Z,13.27
2018-12-05T13:15:01.153Z,14.47
2018-12-05T13:17:29.429Z,15.50
2018-12-05T13:19:57.624Z,14.20
2018-12-05T13:22:25.773Z,13.70
2018-12-05T13:24:54.064Z,13.23
2018-12-05T13:27:22.252Z,13.67
2018-12-05T13:29:50.394Z,14.03
2018-12-05T13:32:18.577Z,14.20
2018-12-05T13:34:46.868Z,12.93
2018-12-05T13:37:15.033Z,14.20
2018-12-05T13:39:43.189Z,14.37
2018-12-05T13:42:11.402Z,14.63
2018-12-05T13:44:39.705Z,14.40
2018-12-05T13:47:07.914Z,13.80
2018-12-05T13:49:36.169Z,14.10
2018-12-05T13:52:04.365Z,14.20
2018-12-05T13:54:32.537Z,14.43
2018-12-05T13:57:00.745Z,15.23
2018-12-05T13:59:28.985Z,14.97
2018-12-05T14:01:57.389Z,15.73
2018-12-05T14:04:25.706Z,15.87
2018-12-05T14:06:53.813Z,16.90
2018-12-05T14:09:22.018Z,16.30
2018-12-05T14:11:50.297Z,16.73
2018-12-05T14:14:18.457Z,15.73
2018-12-05T14:16:46.641Z,14.70
2018-12-05T14:19:14.809Z,14.90
2018-12-05T14:21:43.062Z,15.33
2018-12-05T14:24:11.233Z,14.93
2018-12-05T14:26:39.402Z,14.40
2018-12-05T14:29:07.582Z,15.03
2018-12-05T14:31:35.755Z,15.40
2018-12-05T14:34:03.969Z,14.30
2018-12-05T14:36:32.113Z,13.73
2018-12-05T14:39:00.389Z,14.80
2018-12-05T14:41:28.591Z,14.60
2018-12-05T14:43:56.720Z,14.57
2018-12-05T14:46:24.901Z,14.67
2018-12-05T14:48:53.205Z,14.73
2018-12-05T14:51:21.425Z,15.13
2018-12-05T14:53:49.630Z,15.30
2018-12-05T14:56:17.828Z,14.90
2018-12-05T14:58:46.069Z,16.43
2018-12-05T15:01:14.709Z,15.23
2018-12-05T15:03:42.966Z,14.83
2018-12-05T15:06:11.328Z,20.03
2018-12-05T15:08:39.491Z,19.20
2018-12-05T15:11:07.686Z,20.50
2018-12-05T15:13:35.833Z,21.87
2018-12-05T15:16:04.018Z,17.37
2018-12-05T15:18:32.334Z,17.33
2018-12-05T15:21:00.557Z,17.43
2018-12-05T15:23:28.891Z,17.10
2018-12-05T15:25:57.036Z,17.47
2018-12-05T15:28:25.224Z,17.20
2018-12-05T15:30:53.349Z,17.77
2018-12-05T15:33:21.555Z,19.63
2018-12-05T15:35:49.801Z,16.90
2018-12-05T15:38:17.981Z,18.17
2018-12-05T15:40:46.247Z,19.63
2018-12-05T15:43:14.533Z,18.60
2018-12-05T15:45:42.706Z,15.30
2018-12-05T15:48:11.001Z,14.93
2018-12-05T15:50:39.182Z,13.90
2018-12-05T15:53:07.356Z,14.60
2018-12-05T15:55:35.533Z,14.50
2018-12-05T15:58:03.831Z,15.17
2018-12-05T16:00:32.146Z,13.57
2018-12-05T16:03:00.361Z,14.33
2018-12-05T16:05:28.493Z,14.77
2018-12-05T16:07:56.665Z,13.93
2018-12-05T16:10:24.969Z,14.17
2018-12-05T16:12:53.125Z,14.63
2018-12-05T16:15:21.294Z,14.33
2018-12-05T16:17:49.493Z,15.37
2018-12-05T16:20:17.661Z,13.87
2018-12-05T16:22:45.840Z,13.63
2018-12-05T16:25:14.017Z,14.83
2018-12-05T16:27:42.137Z,16.07
2018-12-05T16:30:10.333Z,14.93
2018-12-05T16:32:38.533Z,15.03
2018-12-05T16:35:06.686Z,15.67
2018-12-05T16:37:34.886Z,14.80
2018-12-05T16:40:05.032Z,13.00
2018-12-05T16:42:33.244Z,12.97
2018-12-05T16:45:01.429Z,14.23
2018-12-05T16:47:29.645Z,14.67
2018-12-05T16:49:57.921Z,14.63
2018-12-05T16:52:26.158Z,16.33
2018-12-05T16:54:54.731Z,15.00
2018-12-05T16:57:22.909Z,14.50
2018-12-05T16:59:51.073Z,14.27
2018-12-05T17:02:19.294Z,15.40
2018-12-05T17:04:47.528Z,15.40
2018-12-05T17:07:15.710Z,17.10
2018-12-05T17:09:43.931Z,16.40
2018-12-05T17:12:12.169Z,17.30
2018-12-05T17:14:40.333Z,17.17
2018-12-05T17:17:08.530Z,17.20
2018-12-05T17:19:36.737Z,18.97
2018-12-05T17:22:04.949Z,17.20
2018-12-05T17:24:33.162Z,15.67
2018-12-05T17:27:01.279Z,15.13
2018-12-05T17:29:29.565Z,13.57
2018-12-05T17:31:57.773Z,14.80
2018-12-05T17:34:25.922Z,14.17
2018-12-05T17:36:54.133Z,13.00
2018-12-05T17:39:22.290Z,11.77
2018-12-05T17:41:50.447Z,12.83
2018-12-05T17:44:18.608Z,11.40
2018-12-05T17:46:46.908Z,11.53
2018-12-05T17:49:15.073Z,12.43
2018-12-05T17:51:43.345Z,11.77
2018-12-05T17:54:14.943Z,12.37
2018-12-05T17:56:42.738Z,12.33
2018-12-05T17:59:11.785Z,12.57
2018-12-05T18:01:40.120Z,12.00
2018-12-05T18:04:08.393Z,12.50
2018-12-05T18:06:36.574Z,11.80
2018-12-05T18:09:07.981Z,10.77
2018-12-05T18:11:36.220Z,11.37
2018-12-05T18:14:04.380Z,10.47
2018-12-05T18:16:32.672Z,10.30
2018-12-05T18:19:00.980Z,11.10
2018-12-05T18:21:29.122Z,10.90
2018-12-05T18:23:57.323Z,10.40
2018-12-05T18:26:25.615Z,11.27
2018-12-05T18:28:53.817Z,11.20
2018-12-05T18:31:22.021Z,12.57
2018-12-05T18:33:50.201Z,11.63
2018-12-05T18:36:18.417Z,12.60
2018-12-05T18:38:46.760Z,13.03
2018-12-05T18:41:15.013Z,12.83
2018-12-05T18:43:43.450Z,14.00
2018-12-05T18:46:11.677Z,11.47
2018-12-05T18:48:39.832Z,11.87
2018-12-05T18:51:08.113Z,11.30
2018-12-05T18:53:36.297Z,11.53
2018-12-05T18:56:04.441Z,11.03
2018-12-05T18:58:32.720Z,10.97
2018-12-05T19:01:00.946Z,14.37
2018-12-05T19:03:29.170Z,13.90
2018-12-05T19:05:57.341Z,12.23
2018-12-05T19:08:25.542Z,11.43
2018-12-05T19:10:53.693Z,11.17
2018-12-05T19:13:21.869Z,9.90
2018-12-05T19:15:50.166Z,9.90
2018-12-05T19:18:18.306Z,9.77
2018-12-05T19:20:46.480Z,8.77
2018-12-05T19:23:14.688Z,7.90
2018-12-05T19:25:42.840Z,8.20
2018-12-05T19:28:10.977Z,9.23
2018-12-05T19:30:39.208Z,7.80
2018-12-05T19:33:07.358Z,7.87
2018-12-05T19:35:35.628Z,11.43
2018-12-05T19:38:03.941Z,8.80
2018-12-05T19:40:32.150Z,8.93
2018-12-05T19:43:00.385Z,9.17
2018-12-05T19:45:28.566Z,9.87
2018-12-05T19:47:56.733Z,10.37
2018-12-05T19:50:24.905Z,7.30
2018-12-05T19:52:53.173Z,8.37
2018-12-05T19:55:21.313Z,9.33
2018-12-05T19:57:49.496Z,8.13
2018-12-05T20:00:17.812Z,9.37
2018-12-05T20:02:46.041Z,7.93
2018-12-05T20:05:14.248Z,7.17
2018-12-05T20:07:42.552Z,6.93
2018-12-05T20:10:10.801Z,7.93
2018-12-05T20:12:39.152Z,7.30
2018-12-05T20:15:07.375Z,7.53
2018-12-05T20:17:36.421Z,7.53
2018-12-05T20:20:05.285Z,7.57
2018-12-05T20:22:33.658Z,8.10
2018-12-05T20:25:01.917Z,6.93
2018-12-05T20:27:30.042Z,7.30
2018-12-05T20:29:58.245Z,6.93
2018-12-05T20:32:26.386Z,6.60
2018-12-05T20:34:54.570Z,7.27
2018-12-05T20:37:22.922Z,7.37
2018-12-05T20:39:51.109Z,7.57
2018-12-05T20:42:19.425Z,7.30
2018-12-05T20:44:47.729Z,7.07
2018-12-05T20:47:15.929Z,7.43
2018-12-05T20:49:44.166Z,7.10
2018-12-05T20:52:12.501Z,7.93
2018-12-05T20:54:40.740Z,7.33
2018-12-05T20:57:09.022Z,11.07
2018-12-05T20:59:37.269Z,7.50
2018-12-05T21:02:05.765Z,6.83
2018-12-05T21:04:34.003Z,7.13
2018-12-05T21:07:02.205Z,7.00
2018-12-05T21:09:30.481Z,6.23
2018-12-05T21:11:58.749Z,8.00
2018-12-05T21:14:27.006Z,7.73
2018-12-05T21:16:55.240Z,7.57
2018-12-05T21:19:23.417Z,7.30
2018-12-05T21:21:51.628Z,8.50
2018-12-05T21:24:19.770Z,7.70
2018-12-05T21:26:47.932Z,8.40
2018-12-05T21:29:16.173Z,8.50
2018-12-05T21:31:44.381Z,8.97
2018-12-05T21:34:12.565Z,7.50
2018-12-05T21:36:40.761Z,7.47
2018-12-05T21:39:09.228Z,7.20
2018-12-05T21:41:37.469Z,8.60
2018-12-05T21:44:05.693Z,7.50
2018-12-05T21:46:33.843Z,7.73
2018-12-05T21:49:02.114Z,8.00
2018-12-05T21:51:30.328Z,8.20
2018-12-05T21:53:58.517Z,7.20
2018-12-05T21:56:26.741Z,7.37
2018-12-05T21:58:54.997Z,7.00
2018-12-05T22:01:23.181Z,6.40
2018-12-05T22:03:51.353Z,7.80
2018-12-05T22:06:19.568Z,6.07
2018-12-05T22:08:47.697Z,6.97
2018-12-05T22:11:15.882Z,7.17
2018-12-05T22:13:44.193Z,7.17
2018-12-05T22:16:12.430Z,6.67
2018-12-05T22:18:40.754Z,6.80
2018-12-05T22:21:09.002Z,6.10
2018-12-05T22:23:37.148Z,6.57
2018-12-05T22:26:05.322Z,6.60
2018-12-05T22:28:33.549Z,6.40
2018-12-05T22:31:01.770Z,6.40
2018-12-05T22:33:29.952Z,9.70
2018-12-05T22:35:58.169Z,9.10
2018-12-05T22:38:26.393Z,7.53
2018-12-05T22:40:54.573Z,7.93
2018-12-05T22:43:22.773Z,7.17
2018-12-05T22:45:51.019Z,7.83
2018-12-05T22:48:19.190Z,6.53
2018-12-05T22:50:47.389Z,6.13
2018-12-05T22:53:15.633Z,5.63
2018-12-05T22:55:43.829Z,6.87
2018-12-05T22:58:12.021Z,5.87
2018-12-05T23:00:42.582Z,6.50
2018-12-05T23:03:10.793Z,6.00
2018-12-05T23:05:39.006Z,6.03
2018-12-05T23:08:07.236Z,5.73
2018-12-05T23:10:35.434Z,6.07
2018-12-05T23:13:03.746Z,5.80
2018-12-05T23:15:31.964Z,6.03
2018-12-05T23:18:00.305Z,5.27
2018-12-05T23:20:28.549Z,6.23
2018-12-05T23:22:56.689Z,4.83
2018-12-05T23:25:24.965Z,5.77
2018-12-05T23:27:53.186Z,5.40
2018-12-05T23:30:21.331Z,6.00
2018-12-05T23:32:49.480Z,5.67
2018-12-05T23:35:17.783Z,6.03
2018-12-05T23:37:45.932Z,5.70
2018-12-05T23:40:14.209Z,5.60
2018-12-05T23:42:42.690Z,5.90
2018-12-05T23:45:11.145Z,6.00
2018-12-05T23:47:39.340Z,6.53
2018-12-05T23:50:07.544Z,5.77
2018-12-05T23:52:35.688Z,11.47
2018-12-05T23:55:03.860Z,9.13
2018-12-05T23:57:32.065Z,6.03
